sensor_id;sensor_type;location;lat;lon;timestamp;P1;durP1;ratioP1;P2;durP2;ratioP2
20093;SDS011;10206;48.012;10.030;2023-04-03T00:00:16;14.60;;;10.83;;
20093;SDS011;10206;48.012;10.030;2023-04-03T00:02:42;15.20;;;10.17;;
20093;SDS011;10206;48.012;10.030;2023-04-03T00:05:08;13.13;;;10.13;;
20093;SDS011;10206;48.012;10.030;2023-04-03T00:07:34;14.33;;;10.23;;
20093;SDS011;10206;48.012;10.030;2023-04-03T00:10:00;13.20;;;10.07;;
20093;SDS011;10206;48.012;10.030;2023-04-03T00:12:26;12.70;;;9.80;;
20093;SDS011;10206;48.012;10.030;2023-04-03T00:14:52;13.43;;;9.57;;
20093;SDS011;10206;48.012;10.030;2023-04-03T00:17:18;12.70;;;9.83;;
20093;SDS011;10206;48.012;10.030;2023-04-03T00:19:45;13.93;;;9.23;;
20093;SDS011;10206;48.012;10.030;2023-04-03T00:22:11;15.10;;;10.43;;
20093;SDS011;10206;48.012;10.030;2023-04-03T00:24:37;12.80;;;9.90;;
20093;SDS011;10206;48.012;10.030;2023-04-03T00:27:03;13.20;;;9.60;;
20093;SDS011;10206;48.012;10.030;2023-04-03T00:29:29;12.80;;;9.23;;
20093;SDS011;10206;48.012;10.030;2023-04-03T00:31:55;13.83;;;10.03;;
20093;SDS011;10206;48.012;10.030;2023-04-03T00:34:21;12.87;;;9.80;;
20093;SDS011;10206;48.012;10.030;2023-04-03T00:36:47;17.30;;;10.90;;
20093;SDS011;10206;48.012;10.030;2023-04-03T00:39:13;12.73;;;9.90;;
20093;SDS011;10206;48.012;10.030;2023-04-03T00:41:40;14.70;;;10.17;;
20093;SDS011;10206;48.012;10.030;2023-04-03T00:44:21;16.17;;;10.23;;
20093;SDS011;10206;48.012;10.030;2023-04-03T00:47:11;12.73;;;9.73;;
20093;SDS011;10206;48.012;10.030;2023-04-03T00:49:40;14.67;;;10.50;;
20093;SDS011;10206;48.012;10.030;2023-04-03T00:52:08;14.80;;;9.83;;
20093;SDS011;10206;48.012;10.030;2023-04-03T00:54:38;13.43;;;9.87;;
20093;SDS011;10206;48.012;10.030;2023-04-03T00:57:07;13.90;;;10.57;;
20093;SDS011;10206;48.012;10.030;2023-04-03T00:59:36;14.73;;;10.07;;
20093;SDS011;10206;48.012;10.030;2023-04-03T01:02:06;11.57;;;9.13;;
20093;SDS011;10206;48.012;10.030;2023-04-03T01:04:33;13.37;;;10.07;;
20093;SDS011;10206;48.012;10.030;2023-04-03T01:07:04;14.57;;;9.93;;
20093;SDS011;10206;48.012;10.030;2023-04-03T01:09:33;15.93;;;10.17;;
20093;SDS011;10206;48.012;10.030;2023-04-03T01:12:16;13.20;;;9.50;;
20093;SDS011;10206;48.012;10.030;2023-04-03T01:14:46;12.40;;;8.87;;
20093;SDS011;10206;48.012;10.030;2023-04-03T01:17:27;13.60;;;9.90;;
20093;SDS011;10206;48.012;10.030;2023-04-03T01:22:45;12.73;;;8.77;;
20093;SDS011;10206;48.012;10.030;2023-04-03T01:25:21;13.40;;;9.70;;
20093;SDS011;10206;48.012;10.030;2023-04-03T01:27:47;14.07;;;9.30;;
20093;SDS011;10206;48.012;10.030;2023-04-03T01:30:14;11.27;;;9.00;;
20093;SDS011;10206;48.012;10.030;2023-04-03T01:32:43;13.43;;;8.90;;
20093;SDS011;10206;48.012;10.030;2023-04-03T01:35:10;11.80;;;8.60;;
20093;SDS011;10206;48.012;10.030;2023-04-03T01:37:36;11.67;;;8.70;;
20093;SDS011;10206;48.012;10.030;2023-04-03T01:40:02;11.07;;;8.90;;
20093;SDS011;10206;48.012;10.030;2023-04-03T01:42:29;12.30;;;8.87;;
20093;SDS011;10206;48.012;10.030;2023-04-03T01:44:55;11.67;;;9.03;;
20093;SDS011;10206;48.012;10.030;2023-04-03T01:47:21;13.20;;;8.70;;
20093;SDS011;10206;48.012;10.030;2023-04-03T01:49:48;11.20;;;8.57;;
20093;SDS011;10206;48.012;10.030;2023-04-03T01:52:14;11.10;;;8.30;;
20093;SDS011;10206;48.012;10.030;2023-04-03T01:54:40;9.87;;;8.07;;
20093;SDS011;10206;48.012;10.030;2023-04-03T01:57:06;10.57;;;8.03;;
20093;SDS011;10206;48.012;10.030;2023-04-03T01:59:32;9.80;;;7.77;;
20093;SDS011;10206;48.012;10.030;2023-04-03T02:01:58;10.17;;;7.73;;
20093;SDS011;10206;48.012;10.030;2023-04-03T02:04:24;10.53;;;7.83;;
20093;SDS011;10206;48.012;10.030;2023-04-03T02:06:50;9.90;;;7.90;;
20093;SDS011;10206;48.012;10.030;2023-04-03T02:09:17;9.63;;;7.83;;
20093;SDS011;10206;48.012;10.030;2023-04-03T02:11:43;9.20;;;7.37;;
20093;SDS011;10206;48.012;10.030;2023-04-03T02:14:09;11.90;;;8.40;;
20093;SDS011;10206;48.012;10.030;2023-04-03T02:16:35;13.30;;;8.57;;
20093;SDS011;10206;48.012;10.030;2023-04-03T02:19:01;11.80;;;8.70;;
20093;SDS011;10206;48.012;10.030;2023-04-03T02:21:27;12.33;;;8.47;;
20093;SDS011;10206;48.012;10.030;2023-04-03T02:23:53;11.87;;;7.83;;
20093;SDS011;10206;48.012;10.030;2023-04-03T02:26:19;11.90;;;8.23;;
20093;SDS011;10206;48.012;10.030;2023-04-03T02:28:46;10.53;;;8.40;;
20093;SDS011;10206;48.012;10.030;2023-04-03T02:31:12;10.00;;;8.00;;
20093;SDS011;10206;48.012;10.030;2023-04-03T02:33:38;11.97;;;8.33;;
20093;SDS011;10206;48.012;10.030;2023-04-03T02:36:05;10.10;;;7.97;;
20093;SDS011;10206;48.012;10.030;2023-04-03T02:38:32;12.73;;;8.50;;
20093;SDS011;10206;48.012;10.030;2023-04-03T02:41:01;10.90;;;8.10;;
20093;SDS011;10206;48.012;10.030;2023-04-03T02:43:31;10.40;;;8.60;;
20093;SDS011;10206;48.012;10.030;2023-04-03T02:45:57;11.07;;;7.90;;
20093;SDS011;10206;48.012;10.030;2023-04-03T02:48:24;11.13;;;8.33;;
20093;SDS011;10206;48.012;10.030;2023-04-03T02:50:50;10.47;;;8.40;;
20093;SDS011;10206;48.012;10.030;2023-04-03T02:53:16;11.43;;;7.87;;
20093;SDS011;10206;48.012;10.030;2023-04-03T02:55:43;12.40;;;8.90;;
20093;SDS011;10206;48.012;10.030;2023-04-03T02:58:10;11.60;;;8.13;;
20093;SDS011;10206;48.012;10.030;2023-04-03T03:00:36;12.27;;;8.70;;
20093;SDS011;10206;48.012;10.030;2023-04-03T03:03:03;10.70;;;7.87;;
20093;SDS011;10206;48.012;10.030;2023-04-03T03:05:30;10.50;;;7.50;;
20093;SDS011;10206;48.012;10.030;2023-04-03T03:07:56;10.97;;;8.73;;
20093;SDS011;10206;48.012;10.030;2023-04-03T03:10:22;10.53;;;8.43;;
20093;SDS011;10206;48.012;10.030;2023-04-03T03:12:49;11.23;;;8.30;;
20093;SDS011;10206;48.012;10.030;2023-04-03T03:15:15;9.60;;;7.30;;
20093;SDS011;10206;48.012;10.030;2023-04-03T03:17:42;10.83;;;8.37;;
20093;SDS011;10206;48.012;10.030;2023-04-03T03:20:08;10.87;;;8.60;;
20093;SDS011;10206;48.012;10.030;2023-04-03T03:22:36;11.83;;;7.87;;
20093;SDS011;10206;48.012;10.030;2023-04-03T03:25:02;10.60;;;7.70;;
20093;SDS011;10206;48.012;10.030;2023-04-03T03:27:29;11.70;;;8.03;;
20093;SDS011;10206;48.012;10.030;2023-04-03T03:29:55;10.87;;;7.57;;
20093;SDS011;10206;48.012;10.030;2023-04-03T03:32:21;8.10;;;6.73;;
20093;SDS011;10206;48.012;10.030;2023-04-03T03:34:47;8.77;;;7.23;;
20093;SDS011;10206;48.012;10.030;2023-04-03T03:37:13;10.43;;;7.70;;
20093;SDS011;10206;48.012;10.030;2023-04-03T03:39:39;10.73;;;8.50;;
20093;SDS011;10206;48.012;10.030;2023-04-03T03:42:06;11.47;;;7.83;;
20093;SDS011;10206;48.012;10.030;2023-04-03T03:44:32;8.73;;;7.10;;
20093;SDS011;10206;48.012;10.030;2023-04-03T03:46:58;12.33;;;7.23;;
20093;SDS011;10206;48.012;10.030;2023-04-03T03:49:24;11.30;;;8.20;;
20093;SDS011;10206;48.012;10.030;2023-04-03T03:51:51;11.80;;;7.70;;
20093;SDS011;10206;48.012;10.030;2023-04-03T03:54:17;11.53;;;7.50;;
20093;SDS011;10206;48.012;10.030;2023-04-03T03:56:43;9.40;;;6.93;;
20093;SDS011;10206;48.012;10.030;2023-04-03T03:59:11;10.77;;;6.80;;
20093;SDS011;10206;48.012;10.030;2023-04-03T04:01:37;10.90;;;7.17;;
20093;SDS011;10206;48.012;10.030;2023-04-03T04:04:04;9.73;;;7.10;;
20093;SDS011;10206;48.012;10.030;2023-04-03T04:06:30;15.57;;;11.43;;
20093;SDS011;10206;48.012;10.030;2023-04-03T04:08:56;8.57;;;7.00;;
20093;SDS011;10206;48.012;10.030;2023-04-03T04:11:23;11.23;;;8.20;;
20093;SDS011;10206;48.012;10.030;2023-04-03T04:13:49;11.93;;;8.27;;
20093;SDS011;10206;48.012;10.030;2023-04-03T04:16:15;11.43;;;7.60;;
20093;SDS011;10206;48.012;10.030;2023-04-03T04:18:42;9.93;;;6.77;;
20093;SDS011;10206;48.012;10.030;2023-04-03T04:21:08;10.20;;;7.13;;
20093;SDS011;10206;48.012;10.030;2023-04-03T04:23:34;9.93;;;7.40;;
20093;SDS011;10206;48.012;10.030;2023-04-03T04:26:00;10.23;;;7.80;;
20093;SDS011;10206;48.012;10.030;2023-04-03T04:28:26;10.07;;;6.90;;
20093;SDS011;10206;48.012;10.030;2023-04-03T04:30:52;7.80;;;6.40;;
20093;SDS011;10206;48.012;10.030;2023-04-03T04:33:18;8.40;;;5.80;;
20093;SDS011;10206;48.012;10.030;2023-04-03T04:35:46;10.33;;;6.60;;
20093;SDS011;10206;48.012;10.030;2023-04-03T04:38:13;10.20;;;6.50;;
20093;SDS011;10206;48.012;10.030;2023-04-03T04:40:39;7.97;;;6.27;;
20093;SDS011;10206;48.012;10.030;2023-04-03T04:43:06;9.00;;;6.03;;
20093;SDS011;10206;48.012;10.030;2023-04-03T04:45:32;9.37;;;6.43;;
20093;SDS011;10206;48.012;10.030;2023-04-03T04:47:59;9.20;;;6.43;;
20093;SDS011;10206;48.012;10.030;2023-04-03T04:50:25;7.33;;;5.80;;
20093;SDS011;10206;48.012;10.030;2023-04-03T04:52:51;10.17;;;6.20;;
20093;SDS011;10206;48.012;10.030;2023-04-03T04:55:17;12.63;;;6.27;;
20093;SDS011;10206;48.012;10.030;2023-04-03T04:57:43;9.13;;;6.03;;
20093;SDS011;10206;48.012;10.030;2023-04-03T05:00:10;10.23;;;6.60;;
20093;SDS011;10206;48.012;10.030;2023-04-03T05:02:36;9.13;;;6.90;;
20093;SDS011;10206;48.012;10.030;2023-04-03T05:05:03;9.13;;;6.10;;
20093;SDS011;10206;48.012;10.030;2023-04-03T05:07:29;9.10;;;6.70;;
20093;SDS011;10206;48.012;10.030;2023-04-03T05:09:55;8.73;;;6.20;;
20093;SDS011;10206;48.012;10.030;2023-04-03T05:12:21;8.00;;;6.03;;
20093;SDS011;10206;48.012;10.030;2023-04-03T05:14:47;8.40;;;6.10;;
20093;SDS011;10206;48.012;10.030;2023-04-03T05:17:13;8.60;;;5.40;;
20093;SDS011;10206;48.012;10.030;2023-04-03T05:19:40;8.77;;;6.07;;
20093;SDS011;10206;48.012;10.030;2023-04-03T05:22:06;8.60;;;6.10;;
20093;SDS011;10206;48.012;10.030;2023-04-03T05:24:32;7.73;;;5.83;;
20093;SDS011;10206;48.012;10.030;2023-04-03T05:26:58;7.50;;;5.67;;
20093;SDS011;10206;48.012;10.030;2023-04-03T05:29:24;7.00;;;5.70;;
20093;SDS011;10206;48.012;10.030;2023-04-03T05:31:50;7.43;;;6.03;;
20093;SDS011;10206;48.012;10.030;2023-04-03T05:34:17;8.73;;;5.73;;
20093;SDS011;10206;48.012;10.030;2023-04-03T05:36:43;7.60;;;6.03;;
20093;SDS011;10206;48.012;10.030;2023-04-03T05:39:09;8.50;;;6.10;;
20093;SDS011;10206;48.012;10.030;2023-04-03T05:41:35;9.67;;;6.17;;
20093;SDS011;10206;48.012;10.030;2023-04-03T05:44:02;8.43;;;6.13;;
20093;SDS011;10206;48.012;10.030;2023-04-03T05:46:28;7.87;;;5.50;;
20093;SDS011;10206;48.012;10.030;2023-04-03T05:48:54;7.33;;;5.57;;
20093;SDS011;10206;48.012;10.030;2023-04-03T05:51:25;7.23;;;5.77;;
20093;SDS011;10206;48.012;10.030;2023-04-03T05:54:11;6.93;;;5.47;;
20093;SDS011;10206;48.012;10.030;2023-04-03T05:56:43;8.20;;;5.80;;
20093;SDS011;10206;48.012;10.030;2023-04-03T05:59:10;9.57;;;5.97;;
20093;SDS011;10206;48.012;10.030;2023-04-03T06:01:36;7.27;;;5.43;;
20093;SDS011;10206;48.012;10.030;2023-04-03T06:04:02;8.50;;;5.33;;
20093;SDS011;10206;48.012;10.030;2023-04-03T06:06:48;8.87;;;6.20;;
20093;SDS011;10206;48.012;10.030;2023-04-03T06:09:17;11.37;;;6.07;;
20093;SDS011;10206;48.012;10.030;2023-04-03T06:11:45;7.23;;;5.70;;
20093;SDS011;10206;48.012;10.030;2023-04-03T06:14:11;7.83;;;6.20;;
20093;SDS011;10206;48.012;10.030;2023-04-03T06:16:37;7.13;;;6.00;;
20093;SDS011;10206;48.012;10.030;2023-04-03T06:19:05;7.57;;;5.87;;
20093;SDS011;10206;48.012;10.030;2023-04-03T06:21:32;7.33;;;5.80;;
20093;SDS011;10206;48.012;10.030;2023-04-03T06:23:58;7.17;;;6.00;;
20093;SDS011;10206;48.012;10.030;2023-04-03T06:26:25;8.67;;;5.90;;
20093;SDS011;10206;48.012;10.030;2023-04-03T06:28:52;10.87;;;6.20;;
20093;SDS011;10206;48.012;10.030;2023-04-03T06:31:18;9.80;;;6.50;;
20093;SDS011;10206;48.012;10.030;2023-04-03T06:33:44;8.07;;;6.23;;
20093;SDS011;10206;48.012;10.030;2023-04-03T06:36:10;9.27;;;6.57;;
20093;SDS011;10206;48.012;10.030;2023-04-03T06:38:37;9.27;;;6.07;;
20093;SDS011;10206;48.012;10.030;2023-04-03T06:41:03;8.67;;;6.43;;
20093;SDS011;10206;48.012;10.030;2023-04-03T06:43:30;8.30;;;6.50;;
20093;SDS011;10206;48.012;10.030;2023-04-03T06:45:56;10.87;;;6.63;;
20093;SDS011;10206;48.012;10.030;2023-04-03T06:48:22;8.83;;;6.63;;
20093;SDS011;10206;48.012;10.030;2023-04-03T06:50:49;8.07;;;6.40;;
20093;SDS011;10206;48.012;10.030;2023-04-03T06:53:15;9.90;;;6.57;;
20093;SDS011;10206;48.012;10.030;2023-04-03T06:55:41;9.00;;;6.50;;
20093;SDS011;10206;48.012;10.030;2023-04-03T06:58:07;10.03;;;7.10;;
20093;SDS011;10206;48.012;10.030;2023-04-03T07:00:34;9.33;;;6.83;;
20093;SDS011;10206;48.012;10.030;2023-04-03T07:03:00;8.63;;;6.80;;
20093;SDS011;10206;48.012;10.030;2023-04-03T07:05:26;11.07;;;7.93;;
20093;SDS011;10206;48.012;10.030;2023-04-03T07:07:52;8.00;;;6.40;;
20093;SDS011;10206;48.012;10.030;2023-04-03T07:10:19;10.67;;;7.13;;
20093;SDS011;10206;48.012;10.030;2023-04-03T07:12:45;13.07;;;7.57;;
20093;SDS011;10206;48.012;10.030;2023-04-03T07:15:11;10.07;;;6.93;;
20093;SDS011;10206;48.012;10.030;2023-04-03T07:17:39;9.70;;;6.97;;
20093;SDS011;10206;48.012;10.030;2023-04-03T07:20:06;9.30;;;6.30;;
20093;SDS011;10206;48.012;10.030;2023-04-03T07:22:33;10.13;;;6.63;;
20093;SDS011;10206;48.012;10.030;2023-04-03T07:24:59;10.90;;;7.10;;
20093;SDS011;10206;48.012;10.030;2023-04-03T07:27:25;7.90;;;6.47;;
20093;SDS011;10206;48.012;10.030;2023-04-03T07:29:52;9.13;;;6.57;;
20093;SDS011;10206;48.012;10.030;2023-04-03T07:32:18;9.03;;;6.73;;
20093;SDS011;10206;48.012;10.030;2023-04-03T07:34:44;10.23;;;7.20;;
20093;SDS011;10206;48.012;10.030;2023-04-03T07:37:10;12.47;;;6.47;;
20093;SDS011;10206;48.012;10.030;2023-04-03T07:39:37;9.60;;;6.10;;
20093;SDS011;10206;48.012;10.030;2023-04-03T07:42:03;16.77;;;10.50;;
20093;SDS011;10206;48.012;10.030;2023-04-03T07:44:30;17.43;;;10.93;;
20093;SDS011;10206;48.012;10.030;2023-04-03T07:46:57;12.40;;;8.87;;
20093;SDS011;10206;48.012;10.030;2023-04-03T07:49:24;11.07;;;8.70;;
20093;SDS011;10206;48.012;10.030;2023-04-03T07:51:51;8.80;;;7.30;;
20093;SDS011;10206;48.012;10.030;2023-04-03T07:54:18;13.13;;;8.70;;
20093;SDS011;10206;48.012;10.030;2023-04-03T07:56:44;12.20;;;7.97;;
20093;SDS011;10206;48.012;10.030;2023-04-03T07:59:10;31.30;;;15.40;;
20093;SDS011;10206;48.012;10.030;2023-04-03T08:01:36;25.53;;;12.30;;
20093;SDS011;10206;48.012;10.030;2023-04-03T08:04:02;135.07;;;49.80;;
20093;SDS011;10206;48.012;10.030;2023-04-03T08:06:30;38.40;;;15.50;;
20093;SDS011;10206;48.012;10.030;2023-04-03T08:08:59;227.80;;;63.03;;
20093;SDS011;10206;48.012;10.030;2023-04-03T08:11:26;436.67;;;120.97;;
20093;SDS011;10206;48.012;10.030;2023-04-03T08:13:53;179.47;;;54.87;;
20093;SDS011;10206;48.012;10.030;2023-04-03T08:16:20;43.87;;;17.23;;
20093;SDS011;10206;48.012;10.030;2023-04-03T08:18:47;198.53;;;52.43;;
20093;SDS011;10206;48.012;10.030;2023-04-03T08:21:13;254.93;;;70.57;;
20093;SDS011;10206;48.012;10.030;2023-04-03T08:23:40;515.60;;;150.27;;
20093;SDS011;10206;48.012;10.030;2023-04-03T08:26:10;231.97;;;80.53;;
20093;SDS011;10206;48.012;10.030;2023-04-03T08:28:38;151.77;;;50.80;;
20093;SDS011;10206;48.012;10.030;2023-04-03T08:31:05;91.03;;;33.20;;
20093;SDS011;10206;48.012;10.030;2023-04-03T08:33:35;180.40;;;62.60;;
20093;SDS011;10206;48.012;10.030;2023-04-03T08:36:06;192.97;;;72.33;;
20093;SDS011;10206;48.012;10.030;2023-04-03T08:38:40;328.07;;;117.77;;
20093;SDS011;10206;48.012;10.030;2023-04-03T08:46:08;249.93;;;103.77;;
20093;SDS011;10206;48.012;10.030;2023-04-03T08:48:42;128.93;;;51.93;;
20093;SDS011;10206;48.012;10.030;2023-04-03T08:51:13;161.70;;;73.53;;
20093;SDS011;10206;48.012;10.030;2023-04-03T08:53:46;442.57;;;153.83;;
20093;SDS011;10206;48.012;10.030;2023-04-03T08:56:21;72.47;;;29.40;;
20093;SDS011;10206;48.012;10.030;2023-04-03T08:58:55;246.70;;;99.17;;
20093;SDS011;10206;48.012;10.030;2023-04-03T09:01:39;43.90;;;20.47;;
20093;SDS011;10206;48.012;10.030;2023-04-03T09:04:10;68.80;;;32.80;;
20093;SDS011;10206;48.012;10.030;2023-04-03T09:06:39;12.70;;;7.40;;
20093;SDS011;10206;48.012;10.030;2023-04-03T09:09:14;29.13;;;13.83;;
20093;SDS011;10206;48.012;10.030;2023-04-03T09:23:15;7.43;;;6.37;;
20093;SDS011;10206;48.012;10.030;2023-04-03T09:25:45;8.13;;;5.70;;
20093;SDS011;10206;48.012;10.030;2023-04-03T09:28:12;8.93;;;6.40;;
20093;SDS011;10206;48.012;10.030;2023-04-03T09:30:39;7.27;;;6.13;;
20093;SDS011;10206;48.012;10.030;2023-04-03T09:33:06;6.83;;;5.90;;
20093;SDS011;10206;48.012;10.030;2023-04-03T09:35:34;7.00;;;5.30;;
20093;SDS011;10206;48.012;10.030;2023-04-03T09:40:38;7.13;;;5.07;;
20093;SDS011;10206;48.012;10.030;2023-04-03T09:45:41;6.33;;;4.90;;
20093;SDS011;10206;48.012;10.030;2023-04-03T09:50:41;7.47;;;5.40;;
20093;SDS011;10206;48.012;10.030;2023-04-03T09:58:43;4.90;;;4.20;;
20093;SDS011;10206;48.012;10.030;2023-04-03T10:01:25;7.50;;;4.93;;
20093;SDS011;10206;48.012;10.030;2023-04-03T10:06:44;6.80;;;5.10;;
20093;SDS011;10206;48.012;10.030;2023-04-03T10:12:03;8.47;;;4.70;;
20093;SDS011;10206;48.012;10.030;2023-04-03T10:14:39;4.93;;;4.50;;
20093;SDS011;10206;48.012;10.030;2023-04-03T10:19:58;6.77;;;4.80;;
20093;SDS011;10206;48.012;10.030;2023-04-03T10:25:06;6.37;;;4.60;;
20093;SDS011;10206;48.012;10.030;2023-04-03T10:30:30;6.20;;;4.77;;
20093;SDS011;10206;48.012;10.030;2023-04-03T10:36:33;7.70;;;4.60;;
20093;SDS011;10206;48.012;10.030;2023-04-03T10:39:13;5.30;;;4.20;;
20093;SDS011;10206;48.012;10.030;2023-04-03T10:47:44;6.27;;;4.50;;
20093;SDS011;10206;48.012;10.030;2023-04-03T10:52:51;8.03;;;4.93;;
20093;SDS011;10206;48.012;10.030;2023-04-03T10:55:40;4.87;;;4.37;;
20093;SDS011;10206;48.012;10.030;2023-04-03T10:58:24;5.00;;;4.50;;
20093;SDS011;10206;48.012;10.030;2023-04-03T11:00:59;4.87;;;4.30;;
20093;SDS011;10206;48.012;10.030;2023-04-03T11:03:36;5.73;;;4.00;;
20093;SDS011;10206;48.012;10.030;2023-04-03T11:06:08;5.67;;;4.37;;
20093;SDS011;10206;48.012;10.030;2023-04-03T11:08:44;5.77;;;4.67;;
20093;SDS011;10206;48.012;10.030;2023-04-03T11:11:32;7.97;;;4.90;;
20093;SDS011;10206;48.012;10.030;2023-04-03T11:16:32;4.27;;;3.70;;
20093;SDS011;10206;48.012;10.030;2023-04-03T11:19:03;6.67;;;4.37;;
20093;SDS011;10206;48.012;10.030;2023-04-03T11:21:41;5.07;;;3.93;;
20093;SDS011;10206;48.012;10.030;2023-04-03T11:24:19;5.53;;;3.60;;
20093;SDS011;10206;48.012;10.030;2023-04-03T11:26:53;5.43;;;4.40;;
20093;SDS011;10206;48.012;10.030;2023-04-03T11:29:22;4.23;;;3.77;;
20093;SDS011;10206;48.012;10.030;2023-04-03T11:34:37;4.83;;;4.37;;
20093;SDS011;10206;48.012;10.030;2023-04-03T11:39:51;4.60;;;4.13;;
20093;SDS011;10206;48.012;10.030;2023-04-03T11:42:31;5.53;;;4.50;;
20093;SDS011;10206;48.012;10.030;2023-04-03T11:47:51;4.37;;;3.97;;
20093;SDS011;10206;48.012;10.030;2023-04-03T11:52:57;5.17;;;3.67;;
20093;SDS011;10206;48.012;10.030;2023-04-03T12:08:24;5.17;;;3.97;;
20093;SDS011;10206;48.012;10.030;2023-04-03T12:13:40;5.00;;;4.07;;
20093;SDS011;10206;48.012;10.030;2023-04-03T12:16:22;4.47;;;4.07;;
20093;SDS011;10206;48.012;10.030;2023-04-03T12:18:54;6.40;;;4.40;;
20093;SDS011;10206;48.012;10.030;2023-04-03T12:21:22;5.67;;;4.20;;
20093;SDS011;10206;48.012;10.030;2023-04-03T12:23:59;4.23;;;3.83;;
20093;SDS011;10206;48.012;10.030;2023-04-03T12:26:31;5.03;;;3.43;;
20093;SDS011;10206;48.012;10.030;2023-04-03T12:29:13;5.20;;;3.77;;
20093;SDS011;10206;48.012;10.030;2023-04-03T12:48:38;5.13;;;3.53;;
20093;SDS011;10206;48.012;10.030;2023-04-03T12:51:13;3.70;;;3.33;;
20093;SDS011;10206;48.012;10.030;2023-04-03T12:53:43;5.20;;;3.70;;
20093;SDS011;10206;48.012;10.030;2023-04-03T12:56:26;6.03;;;3.83;;
20093;SDS011;10206;48.012;10.030;2023-04-03T12:58:55;4.40;;;3.70;;
20093;SDS011;10206;48.012;10.030;2023-04-03T13:01:41;4.53;;;4.00;;
20093;SDS011;10206;48.012;10.030;2023-04-03T13:04:09;6.33;;;4.23;;
20093;SDS011;10206;48.012;10.030;2023-04-03T13:06:41;8.20;;;3.70;;
20093;SDS011;10206;48.012;10.030;2023-04-03T13:09:18;7.23;;;3.80;;
20093;SDS011;10206;48.012;10.030;2023-04-03T13:11:51;4.60;;;4.17;;
20093;SDS011;10206;48.012;10.030;2023-04-03T13:14:22;4.73;;;4.10;;
20093;SDS011;10206;48.012;10.030;2023-04-03T13:16:54;6.07;;;4.37;;
20093;SDS011;10206;48.012;10.030;2023-04-03T13:19:22;6.93;;;4.20;;
20093;SDS011;10206;48.012;10.030;2023-04-03T13:21:51;5.57;;;4.00;;
20093;SDS011;10206;48.012;10.030;2023-04-03T13:24:43;5.70;;;4.47;;
20093;SDS011;10206;48.012;10.030;2023-04-03T13:27:11;4.80;;;4.30;;
20093;SDS011;10206;48.012;10.030;2023-04-03T13:29:38;5.43;;;4.80;;
20093;SDS011;10206;48.012;10.030;2023-04-03T13:32:05;4.77;;;4.20;;
20093;SDS011;10206;48.012;10.030;2023-04-03T13:34:41;6.17;;;4.10;;
20093;SDS011;10206;48.012;10.030;2023-04-03T13:37:18;6.03;;;4.20;;
20093;SDS011;10206;48.012;10.030;2023-04-03T13:39:56;8.37;;;4.90;;
20093;SDS011;10206;48.012;10.030;2023-04-03T13:42:30;5.70;;;4.43;;
20093;SDS011;10206;48.012;10.030;2023-04-03T13:45:09;6.73;;;4.60;;
20093;SDS011;10206;48.012;10.030;2023-04-03T13:47:49;8.50;;;4.57;;
20093;SDS011;10206;48.012;10.030;2023-04-03T13:50:24;4.80;;;4.33;;
20093;SDS011;10206;48.012;10.030;2023-04-03T13:53:00;8.00;;;5.00;;
20093;SDS011;10206;48.012;10.030;2023-04-03T13:55:35;5.93;;;4.40;;
20093;SDS011;10206;48.012;10.030;2023-04-03T14:05:57;6.90;;;5.10;;
20093;SDS011;10206;48.012;10.030;2023-04-03T14:08:26;5.73;;;4.17;;
20093;SDS011;10206;48.012;10.030;2023-04-03T14:10:52;6.17;;;4.27;;
20093;SDS011;10206;48.012;10.030;2023-04-03T14:13:19;5.63;;;4.50;;
20093;SDS011;10206;48.012;10.030;2023-04-03T14:15:46;7.47;;;5.03;;
20093;SDS011;10206;48.012;10.030;2023-04-03T14:18:14;8.57;;;4.90;;
20093;SDS011;10206;48.012;10.030;2023-04-03T14:20:42;6.53;;;4.97;;
20093;SDS011;10206;48.012;10.030;2023-04-03T14:23:09;6.43;;;4.63;;
20093;SDS011;10206;48.012;10.030;2023-04-03T14:25:35;6.63;;;4.70;;
20093;SDS011;10206;48.012;10.030;2023-04-03T14:28:06;5.87;;;4.70;;
20093;SDS011;10206;48.012;10.030;2023-04-03T14:30:42;5.23;;;4.20;;
20093;SDS011;10206;48.012;10.030;2023-04-03T14:33:12;6.80;;;4.57;;
20093;SDS011;10206;48.012;10.030;2023-04-03T14:35:41;12.67;;;6.93;;
20093;SDS011;10206;48.012;10.030;2023-04-03T14:38:21;6.00;;;5.03;;
20093;SDS011;10206;48.012;10.030;2023-04-03T14:40:52;5.53;;;4.57;;
20093;SDS011;10206;48.012;10.030;2023-04-03T14:43:19;7.03;;;4.80;;
20093;SDS011;10206;48.012;10.030;2023-04-03T14:45:46;5.53;;;5.00;;
20093;SDS011;10206;48.012;10.030;2023-04-03T14:48:20;9.40;;;7.93;;
20093;SDS011;10206;48.012;10.030;2023-04-03T14:50:56;8.93;;;6.37;;
20093;SDS011;10206;48.012;10.030;2023-04-03T14:53:22;8.87;;;5.37;;
20093;SDS011;10206;48.012;10.030;2023-04-03T14:55:49;5.73;;;4.47;;
20093;SDS011;10206;48.012;10.030;2023-04-03T14:58:17;5.13;;;4.20;;
20093;SDS011;10206;48.012;10.030;2023-04-03T15:00:45;7.20;;;4.63;;
20093;SDS011;10206;48.012;10.030;2023-04-03T15:03:12;7.00;;;4.60;;
20093;SDS011;10206;48.012;10.030;2023-04-03T15:05:40;5.90;;;4.00;;
20093;SDS011;10206;48.012;10.030;2023-04-03T15:08:23;5.17;;;4.47;;
20093;SDS011;10206;48.012;10.030;2023-04-03T15:10:51;4.57;;;4.03;;
20093;SDS011;10206;48.012;10.030;2023-04-03T15:13:18;6.80;;;4.30;;
20093;SDS011;10206;48.012;10.030;2023-04-03T15:15:45;6.67;;;4.40;;
20093;SDS011;10206;48.012;10.030;2023-04-03T15:18:14;6.00;;;4.17;;
20093;SDS011;10206;48.012;10.030;2023-04-03T15:20:43;6.13;;;3.80;;
20093;SDS011;10206;48.012;10.030;2023-04-03T15:23:12;4.40;;;3.80;;
20093;SDS011;10206;48.012;10.030;2023-04-03T15:25:41;8.77;;;5.90;;
20093;SDS011;10206;48.012;10.030;2023-04-03T15:28:56;6.70;;;4.33;;
20093;SDS011;10206;48.012;10.030;2023-04-03T15:30:57;3.67;;;3.37;;
20093;SDS011;10206;48.012;10.030;2023-04-03T15:33:24;5.20;;;3.90;;
20093;SDS011;10206;48.012;10.030;2023-04-03T15:35:51;6.93;;;3.73;;
20093;SDS011;10206;48.012;10.030;2023-04-03T15:38:17;5.20;;;3.93;;
20093;SDS011;10206;48.012;10.030;2023-04-03T15:40:43;4.57;;;3.87;;
20093;SDS011;10206;48.012;10.030;2023-04-03T15:43:12;5.73;;;4.30;;
20093;SDS011;10206;48.012;10.030;2023-04-03T15:45:39;4.73;;;4.00;;
20093;SDS011;10206;48.012;10.030;2023-04-03T15:48:06;5.33;;;4.30;;
20093;SDS011;10206;48.012;10.030;2023-04-03T15:50:33;4.80;;;3.90;;
20093;SDS011;10206;48.012;10.030;2023-04-03T15:53:00;5.93;;;3.87;;
20093;SDS011;10206;48.012;10.030;2023-04-03T15:55:28;4.33;;;3.87;;
20093;SDS011;10206;48.012;10.030;2023-04-03T15:57:55;5.63;;;3.63;;
20093;SDS011;10206;48.012;10.030;2023-04-03T16:00:22;4.30;;;3.53;;
20093;SDS011;10206;48.012;10.030;2023-04-03T16:02:50;4.73;;;3.80;;
20093;SDS011;10206;48.012;10.030;2023-04-03T16:05:24;4.37;;;3.70;;
20093;SDS011;10206;48.012;10.030;2023-04-03T16:07:50;5.93;;;3.90;;
20093;SDS011;10206;48.012;10.030;2023-04-03T16:10:17;5.83;;;3.40;;
20093;SDS011;10206;48.012;10.030;2023-04-03T16:12:44;5.63;;;3.50;;
20093;SDS011;10206;48.012;10.030;2023-04-03T16:15:10;4.43;;;3.67;;
20093;SDS011;10206;48.012;10.030;2023-04-03T16:17:37;4.30;;;3.30;;
20093;SDS011;10206;48.012;10.030;2023-04-03T16:20:06;4.77;;;3.37;;
20093;SDS011;10206;48.012;10.030;2023-04-03T16:22:33;4.27;;;3.60;;
20093;SDS011;10206;48.012;10.030;2023-04-03T16:25:00;5.73;;;3.33;;
20093;SDS011;10206;48.012;10.030;2023-04-03T16:27:26;5.00;;;3.30;;